Time;durP1;ratioP1;P1;durP2;ratioP2;P2;SDS_P1;SDS_P2;PMS_P1;PMS_P2;Temp;Humidity;BMP_temperature;BMP_pressure;BME280_temperature;BME280_humidity;BME280_pressure;Samples;Min_cycle;Max_cycle;Signal;HPM_P1;HPM_P2
2022/12/07 00:02:33;;;;;;;10.20;6.12;;;;;;;3.60;37.87;100904.50;1720053;83;21776;-79
2022/12/07 00:05:38;;;;;;;21.95;13.93;;;;;;;3.65;37.78;100900.95;1719227;83;21714;-80
2022/12/07 00:08:44;;;;;;;22.85;6.10;;;;;;;3.78;37.62;100893.63;1720365;83;21172;-79
2022/12/07 00:11:49;;;;;;;12.05;6.35;;;;;;;3.94;37.58;100893.28;1720356;83;21739;-78
2022/12/07 00:14:48;;;;;;;16.75;6.80;;;;;;;4.12;37.18;100895.05;1720458;83;21200;-79
2022/12/07 00:17:53;;;;;;;18.25;8.58;;;;;;;3.89;37.38;100880.60;1720469;83;21195;-80
2022/12/07 00:21:00;;;;;;;12.53;6.12;;;;;;;4.47;36.73;100884.14;1720332;83;21746;-80
2022/12/07 00:24:07;;;;;;;13.90;8.45;;;;;;;4.14;37.17;100880.91;1722089;81;21255;-79
2022/12/07 00:27:13;;;;;;;11.95;5.20;;;;;;;3.73;37.74;100877.37;1729796;83;21198;-79
2022/12/07 00:30:19;;;;;;;17.90;8.00;;;;;;;3.75;37.84;100865.44;1728921;83;21239;-80
2022/12/07 00:33:25;;;;;;;10.90;7.03;;;;;;;4.41;37.14;100870.20;1729925;83;21179;-79
2022/12/07 00:36:31;;;;;;;13.15;9.48;;;;;;;3.74;37.63;100866.92;1730062;83;21156;-79
2022/12/07 00:39:36;;;;;;;10.75;7.03;;;;;;;4.23;37.21;100876.59;1729795;82;21168;-80
2022/12/07 00:42:42;;;;;;;18.32;7.50;;;;;;;4.56;36.83;100868.95;1729970;83;21144;-78
2022/12/07 00:45:48;;;;;;;16.93;8.15;;;;;;;4.87;36.40;100871.39;1729876;83;21216;-79
2022/12/07 00:48:53;;;;;;;10.48;7.33;;;;;;;4.28;37.00;100864.43;1708263;83;21140;-80
2022/12/07 00:51:59;;;;;;;8.23;5.97;;;;;;;4.64;36.87;100866.99;1730048;83;21132;-79
2022/12/07 00:55:04;;;;;;;6.80;5.08;;;;;;;3.91;37.47;100853.44;1728820;82;21752;-78
2022/12/07 00:58:09;;;;;;;23.32;5.40;;;;;;;3.86;37.81;100863.27;1730003;83;21698;-79
2022/12/07 01:01:15;;;;;;;16.37;5.42;;;;;;;3.83;37.82;100856.73;1729982;83;21163;-80
2022/12/07 01:04:21;;;;;;;12.15;7.72;;;;;;;3.62;37.99;100852.48;1729631;83;21772;-79
2022/12/07 01:07:28;;;;;;;10.58;6.10;;;;;;;4.19;37.41;100847.56;1729931;83;21709;-79
2022/12/07 01:10:34;;;;;;;14.07;8.25;;;;;;;4.69;36.79;100835.81;1732010;81;21725;-80
2022/12/07 01:13:39;;;;;;;19.75;9.40;;;;;;;4.78;36.46;100851.33;1732189;83;21180;-80
2022/12/07 01:16:45;;;;;;;10.88;5.80;;;;;;;4.55;37.05;100851.84;1732287;83;21208;-80
2022/12/07 01:19:50;;;;;;;11.95;5.03;;;;;;;4.82;36.68;100846.02;1718158;83;21227;-79
2022/12/07 01:22:57;;;;;;;12.20;6.30;;;;;;;4.48;36.32;100846.57;1732475;83;21161;-79
2022/12/07 01:26:04;;;;;;;9.83;5.12;;;;;;;4.23;37.26;100843.59;1754080;81;21175;-79
2022/12/07 01:29:03;;;;;;;15.48;6.72;;;;;;;4.11;37.63;100836.47;1756005;80;21196;-79
2022/12/07 01:32:08;;;;;;;19.32;7.53;;;;;;;4.23;37.66;100849.51;1720258;83;21149;-80
2022/12/07 01:35:13;;;;;;;14.20;8.23;;;;;;;3.54;38.78;100836.00;1755127;80;21183;-78
2022/12/07 01:38:19;;;;;;;14.45;6.75;;;;;;;3.31;39.53;100837.77;1756345;81;21160;-79
2022/12/07 01:41:24;;;;;;;14.45;7.58;;;;;;;3.59;39.08;100837.36;1721385;83;21176;-80
2022/12/07 01:44:36;;;;;;;12.47;8.55;;;;;;;3.34;39.69;100833.48;1756523;80;21192;-79
2022/12/07 01:47:41;;;;;;;11.43;5.28;;;;;;;3.18;40.17;100817.55;1757405;81;21728;-79
2022/12/07 01:50:48;;;;;;;13.88;8.20;;;;;;;2.91;40.68;100831.78;1721693;82;21192;-79
2022/12/07 01:53:52;;;;;;;14.18;6.40;;;;;;;3.80;39.58;100832.11;1757301;80;21227;-80
2022/12/07 01:57:01;;;;;;;15.72;6.85;;;;;;;3.27;40.15;100829.51;1757362;81;21772;-79
2022/12/07 02:00:06;;;;;;;15.48;6.62;;;;;;;2.77;40.98;100832.80;1721627;82;21208;-80
2022/12/07 02:03:20;;;;;;;16.65;9.20;;;;;;;3.52;39.94;100842.00;1757415;81;21200;-79
2022/12/07 02:06:30;;;;;;;11.12;7.17;;;;;;;3.34;40.07;100844.30;1757259;81;21159;-79
2022/12/07 02:09:35;;;;;;;9.28;6.10;;;;;;;2.87;40.57;100840.63;1721595;82;21217;-80
2022/12/07 02:12:41;;;;;;;15.10;6.37;;;;;;;3.10;40.36;100852.39;1757372;81;21733;-79
2022/12/07 02:16:25;;;;;;;8.95;4.62;;;;;;;3.51;39.69;100840.28;1756861;80;21175;-80
2022/12/07 02:20:08;;;;;;;12.18;7.28;;;;;;;3.66;39.36;100840.44;1721073;82;21212;-79
2022/12/07 02:24:04;;;;;;;10.25;4.40;;;;;;;3.44;39.72;100836.34;1757141;81;21159;-80
2022/12/07 02:27:27;;;;;;;9.43;6.90;;;;;;;3.23;40.07;100843.73;1755544;81;21215;-80
2022/12/07 02:30:37;;;;;;;10.70;4.55;;;;;;;3.50;39.71;100842.13;1720347;82;21760;-80
2022/12/07 02:33:58;;;;;;;17.13;6.93;;;;;;;3.53;39.70;100833.79;1757523;80;21156;-80
2022/12/07 02:37:08;;;;;;;11.88;7.28;;;;;;;3.44;40.01;100829.58;1757461;81;21199;-78
2022/12/07 02:40:21;;;;;;;17.42;4.90;;;;;;;3.55;39.48;100819.64;1721771;82;21193;-80
2022/12/07 02:43:32;;;;;;;11.15;5.25;;;;;;;3.70;39.73;100821.64;1757395;81;21195;-78
2022/12/07 02:46:41;;;;;;;12.05;5.30;;;;;;;3.71;39.41;100817.95;1757307;81;21164;-79
2022/12/07 02:49:48;;;;;;;20.48;6.85;;;;;;;3.49;39.92;100813.86;1721704;82;21208;-78
2022/12/07 02:52:53;;;;;;;11.40;6.83;;;;;;;3.80;39.41;100819.94;1757337;81;21164;-79
2022/12/07 02:55:58;;;;;;;15.18;5.50;;;;;;;4.02;39.24;100814.19;1756765;80;21732;-80
2022/12/07 02:59:36;;;;;;;10.30;4.95;;;;;;;3.95;39.23;100817.00;1721611;82;21233;-79
2022/12/07 03:03:10;;;;;;;15.38;9.15;;;;;;;3.97;38.96;100800.16;1757368;81;21164;-78
2022/12/07 03:06:30;;;;;;;10.08;5.95;;;;;;;3.93;38.95;100808.16;1757320;81;21164;-78
2022/12/07 03:09:46;;;;;;;13.75;5.72;;;;;;;3.18;40.33;100805.88;1729046;80;21191;-78
2022/12/07 03:13:08;;;;;;;15.03;5.78;;;;;;;3.63;39.62;100802.83;1715360;83;21156;-78
2022/12/07 03:16:26;;;;;;;15.60;8.98;;;;;;;3.50;39.59;100790.73;1757257;81;21184;-78
2022/12/07 03:19:31;;;;;;;12.50;6.72;;;;;;;3.28;39.96;100788.83;1721543;82;21208;-79
2022/12/07 03:22:38;;;;;;;11.43;5.70;;;;;;;3.64;39.60;100791.02;1757400;81;21627;-78
2022/12/07 03:25:49;;;;;;;11.65;7.28;;;;;;;3.48;39.75;100781.00;1757201;80;21203;-80
2022/12/07 03:29:01;;;;;;;10.85;5.08;;;;;;;3.16;40.16;100774.91;1713232;82;21182;-80
2022/12/07 03:32:19;;;;;;;10.80;6.97;;;;;;;3.49;39.82;100777.34;1752349;82;21203;-79
2022/12/07 03:35:32;;;;;;;10.75;6.90;;;;;;;3.62;39.19;100781.28;1752216;80;21765;-80
2022/12/07 03:38:40;;;;;;;11.10;6.45;;;;;;;3.51;39.59;100778.08;1714280;83;21201;-80
2022/12/07 03:41:46;;;;;;;10.63;5.67;;;;;;;3.29;39.83;100781.11;1752357;82;21711;-78
2022/12/07 03:44:53;;;;;;;12.07;5.72;;;;;;;2.99;40.39;100774.84;1752263;80;21203;-78
2022/12/07 03:48:21;;;;;;;9.93;5.83;;;;;;;3.07;40.29;100779.67;1714282;84;21166;-80
2022/12/07 03:51:34;;;;;;;9.88;6.15;;;;;;;3.45;39.54;100773.16;1752428;82;21140;-80
2022/12/07 03:54:46;;;;;;;19.23;7.15;;;;;;;3.24;39.82;100767.05;1752294;80;21694;-78
2022/12/07 03:57:51;;;;;;;13.53;7.83;;;;;;;3.49;39.56;100778.70;1714154;84;21197;-79
2022/12/07 04:00:56;;;;;;;15.18;9.23;;;;;;;2.95;40.27;100776.05;1752204;80;21755;-78
2022/12/07 04:04:02;;;;;;;12.65;9.18;;;;;;;3.56;39.37;100774.02;1752235;80;21192;-78
2022/12/07 04:07:06;;;;;;;11.45;7.35;;;;;;;3.23;39.51;100774.80;1714268;84;21149;-79
2022/12/07 04:10:13;;;;;;;9.78;6.45;;;;;;;3.16;39.54;100779.46;1752267;80;21207;-79
2022/12/07 04:13:19;;;;;;;12.90;7.72;;;;;;;3.27;39.36;100776.29;1752234;82;21195;-80
2022/12/07 04:16:25;;;;;;;9.78;6.45;;;;;;;2.78;39.73;100777.83;1712713;84;21241;-80
2022/12/07 04:19:36;;;;;;;15.90;8.53;;;;;;;3.24;39.45;100773.81;1751815;80;21202;-80
2022/12/07 04:22:42;;;;;;;12.68;6.20;;;;;;;2.98;39.89;100783.07;1752362;82;21160;-79
2022/12/07 04:25:48;;;;;;;10.28;6.05;;;;;;;2.11;41.33;100791.72;1714051;82;21767;-78
2022/12/07 04:28:54;;;;;;;12.47;8.20;;;;;;;1.70;42.17;100787.45;1707772;82;21208;-80
2022/12/07 04:32:01;;;;;;;12.90;5.85;;;;;;;1.95;42.12;100777.62;1755553;81;21168;-80
2022/12/07 04:35:06;;;;;;;9.03;5.85;;;;;;;2.03;42.04;100782.84;1755557;80;21779;-79
2022/12/07 04:38:12;;;;;;;14.60;7.58;;;;;;;1.94;41.93;100794.30;1722203;83;21199;-79
2022/12/07 04:41:08;;;;;;;16.87;5.75;;;;;;;2.07;41.67;100767.30;1751889;81;21157;-78
2022/12/07 04:44:14;;;;;;;15.58;6.95;;;;;;;2.24;41.33;100779.06;1723002;83;21219;-80
2022/12/07 04:47:19;;;;;;;10.75;6.40;;;;;;;1.94;41.79;100759.71;1722289;83;21575;-79
2022/12/07 04:50:26;;;;;;;15.43;7.22;;;;;;;2.26;41.81;100763.64;1721708;83;21224;-78
2022/12/07 04:53:32;;;;;;;12.35;6.87;;;;;;;2.81;40.17;100767.62;1721700;83;21232;-80
2022/12/07 04:56:39;;;;;;;11.57;6.42;;;;;;;2.44;40.86;100788.89;1717912;83;21224;-80
2022/12/07 04:59:44;;;;;;;13.53;6.90;;;;;;;2.42;41.00;100793.55;1716624;83;21224;-78
2022/12/07 05:02:51;;;;;;;12.78;7.10;;;;;;;2.57;40.82;100788.38;1722199;83;21180;-78
2022/12/07 05:05:57;;;;;;;19.82;8.15;;;;;;;2.83;40.38;100797.74;1720827;83;21807;-79
2022/12/07 05:09:04;;;;;;;15.70;8.08;;;;;;;2.97;40.19;100789.46;1722096;83;21223;-79
2022/12/07 05:12:09;;;;;;;13.70;7.60;;;;;;;2.45;40.63;100785.24;1699843;84;21223;-78
2022/12/07 05:15:15;;;;;;;15.85;7.55;;;;;;;2.22;41.14;100781.03;1718580;83;21255;-78
2022/12/07 05:18:21;;;;;;;17.62;8.05;;;;;;;2.67;40.33;100790.76;1744714;82;21261;-78
2022/12/07 05:21:26;;;;;;;16.05;8.23;;;;;;;2.75;39.78;100788.36;1745715;82;21168;-79
2022/12/07 05:24:31;;;;;;;12.53;7.50;;;;;;;3.16;39.49;100783.02;1745293;82;21225;-80
2022/12/07 05:27:38;;;;;;;12.05;7.95;;;;;;;3.02;39.83;100785.91;1745269;82;21225;-79
2022/12/07 05:30:44;;;;;;;17.07;8.18;;;;;;;3.18;39.45;100788.30;1741795;82;21248;-78
2022/12/07 05:33:51;;;;;;;11.22;7.00;;;;;;;3.26;39.03;100793.50;1743971;82;21233;-80
2022/12/07 05:36:57;;;;;;;15.18;10.13;;;;;;;3.25;39.13;100797.19;1743741;82;21178;-79
2022/12/07 05:40:04;;;;;;;15.90;7.33;;;;;;;2.78;40.00;100793.54;1744224;82;21213;-81
2022/12/07 05:43:10;;;;;;;17.87;7.95;;;;;;;2.37;40.64;100807.39;1750925;81;21188;-79
2022/12/07 05:46:17;;;;;;;16.75;7.78;;;;;;;2.58;40.57;100811.69;1749712;82;21283;-81
2022/12/07 05:49:22;;;;;;;12.85;6.87;;;;;;;2.64;40.44;100803.16;1750753;82;21216;-81
2022/12/07 05:52:28;;;;;;;13.50;7.00;;;;;;;2.53;40.36;100809.33;1751085;82;21220;-81
2022/12/07 05:55:33;;;;;;;13.40;7.85;;;;;;;2.66;40.20;100817.41;1751787;81;21851;-81
2022/12/07 06:02:11;;;;;;;15.45;8.55;;;;;;;2.27;40.90;100801.80;1755853;81;21212;-80
2022/12/07 06:05:17;;;;;;;15.45;7.78;;;;;;;2.68;40.50;100805.12;1755884;81;21208;-81
2022/12/07 06:08:21;;;;;;;18.15;9.95;;;;;;;2.94;40.11;100803.19;1764234;80;21774;-81
2022/12/07 06:14:51;;;;;;;17.35;7.17;;;;;;;2.76;40.27;100804.94;1725927;81;21194;-80
2022/12/07 06:17:56;;;;;;;17.10;8.90;;;;;;;2.71;40.58;100802.20;1725837;83;21202;-80
2022/12/07 06:21:02;;;;;;;23.65;8.00;;;;;;;2.73;40.33;100809.23;1747970;81;21228;-80
2022/12/07 06:24:08;;;;;;;14.00;6.30;;;;;;;2.97;40.20;100805.19;1746981;80;21185;-79
2022/12/07 06:27:14;;;;;;;20.92;8.38;;;;;;;3.10;39.68;100819.09;1738366;80;21155;-79
2022/12/07 06:30:19;;;;;;;14.98;8.85;;;;;;;3.15;39.54;100803.39;1716796;82;21238;-79
2022/12/07 06:33:26;;;;;;;18.62;8.95;;;;;;;2.44;40.74;100808.66;1720711;82;21300;-80
2022/12/07 06:36:31;;;;;;;14.87;7.50;;;;;;;2.64;40.56;100807.21;1707638;82;21168;-79
2022/12/07 06:39:38;;;;;;;16.73;7.65;;;;;;;2.93;40.05;100809.58;1732498;83;21792;-80
2022/12/07 06:42:43;;;;;;;16.87;7.58;;;;;;;2.42;40.93;100806.56;1732913;82;21493;-81
2022/12/07 06:45:49;;;;;;;14.60;7.97;;;;;;;2.30;40.98;100805.61;1725085;81;21216;-80
2022/12/07 06:48:53;;;;;;;15.90;8.00;;;;;;;2.96;40.28;100812.03;1738552;81;21223;-80
2022/12/07 06:51:59;;;;;;;17.40;8.30;;;;;;;2.19;41.46;100809.58;1699383;81;204874;-80
2022/12/07 06:55:09;;;;;;;14.90;8.35;;;;;;;2.48;41.12;100811.51;1707468;83;21181;-80
2022/12/07 06:58:14;;;;;;;42.65;8.90;;;;;;;2.75;40.49;100814.02;1711125;83;21786;-80
2022/12/07 07:01:23;;;;;;;17.87;8.58;;;;;;;1.91;41.85;100809.83;1674344;84;21727;-79
2022/12/07 07:04:29;;;;;;;16.87;8.38;;;;;;;1.85;42.11;100807.58;1678030;84;21210;-78
2022/12/07 07:07:35;;;;;;;15.98;8.83;;;;;;;1.86;42.24;100802.06;1712049;83;21187;-80
2022/12/07 07:10:43;;;;;;;17.62;8.08;;;;;;;2.08;42.21;100803.24;1715512;83;21213;-78
2022/12/07 07:13:50;;;;;;;15.10;8.43;;;;;;;1.75;42.22;100812.27;1691215;83;21215;-81
2022/12/07 07:16:56;;;;;;;16.82;9.00;;;;;;;2.35;41.34;100804.41;1718893;83;21791;-79
2022/12/07 07:20:01;;;;;;;26.68;9.48;;;;;;;2.58;40.89;100806.78;1718796;83;21826;-77
2022/12/07 07:23:07;;;;;;;17.73;8.65;;;;;;;2.18;41.58;100798.41;1721962;83;21810;-80
2022/12/07 07:26:12;;;;;;;19.90;9.48;;;;;;;1.87;41.84;100797.53;1728102;83;21680;-81
2022/12/07 07:29:19;;;;;;;15.75;10.00;;;;;;;2.64;41.53;100798.25;1721435;82;21210;-78
2022/12/07 07:32:24;;;;;;;19.23;10.20;;;;;;;2.62;40.96;100802.39;1720763;82;21253;-78
2022/12/07 07:35:30;;;;;;;22.37;12.70;;;;;;;2.97;40.63;100805.19;1728091;82;21230;-78
2022/12/07 07:38:36;;;;;;;24.27;9.38;;;;;;;3.59;40.40;100812.16;1718176;82;21211;-79
2022/12/07 07:41:42;;;;;;;15.00;9.23;;;;;;;2.98;40.45;100816.84;1718873;82;21180;-80
2022/12/07 07:44:49;;;;;;;30.10;10.28;;;;;;;2.85;40.38;100814.69;1712938;82;21192;-80
2022/12/07 07:47:55;;;;;;;24.52;10.28;;;;;;;3.11;40.23;100823.06;1696480;83;21751;-80
2022/12/07 07:51:00;;;;;;;20.12;9.08;;;;;;;3.14;40.30;100837.67;1707872;82;35392;-81
2022/12/07 07:53:59;;;;;;;22.30;9.60;;;;;;;3.13;40.11;100829.20;1723743;82;21238;-78
2022/12/07 19:53:29;;;;;;;102.50;47.78;;;;;;;2.19;62.82;100496.50;1809384;79;28182;-75
2022/12/07 19:56:35;;;;;;;29.92;16.17;;;;;;;2.04;62.03;100513.38;1783935;80;21223;-76
2022/12/07 19:59:41;;;;;;;24.92;11.95;;;;;;;1.73;62.67;100509.43;1785776;80;21200;-75
2022/12/07 20:02:47;;;;;;;32.53;14.47;;;;;;;1.28;63.46;100493.50;1817804;79;21176;-75
2022/12/07 20:05:53;;;;;;;33.02;13.50;;;;;;;1.39;63.83;100487.31;1779584;80;21145;-75
2022/12/07 20:08:59;;;;;;;39.15;16.25;;;;;;;1.09;65.22;100500.72;1787165;80;21153;-75
2022/12/07 20:15:29;;;;;;;32.65;17.35;;;;;;;0.60;67.01;100502.86;1786366;80;21177;-76
2022/12/07 20:18:34;;;;;;;27.52;15.50;;;;;;;0.94;66.22;100506.73;1786480;80;21176;-76
2022/12/07 20:21:33;;;;;;;;;;;;;;;1.78;63.54;100509.94;1788786;80;21778;-76
2022/12/07 20:24:39;;;;;;;34.13;16.40;;;;;;;1.50;63.30;100519.23;1786507;80;20202;-76
2022/12/07 20:27:48;;;;;;;34.18;15.50;;;;;;;1.36;64.01;100520.73;1786381;80;21810;-76
2022/12/07 20:30:58;;;;;;;31.40;15.15;;;;;;;1.43;64.07;100522.51;1786455;80;21185;-76
2022/12/07 20:34:04;;;;;;;;;;;;;;;1.44;63.45;100515.64;1787655;80;21189;-75
2022/12/07 20:37:10;;;;;;;42.05;22.02;;;;;;;1.50;63.80;100519.72;1785891;80;20234;-76
2022/12/07 20:40:18;;;;;;;35.17;20.43;;;;;;;1.03;65.41;100509.22;1786487;80;21732;-76
2022/12/07 20:43:24;;;;;;;34.55;16.80;;;;;;;1.23;65.84;100503.77;1785120;80;21223;-75
2022/12/07 20:46:30;;;;;;;53.65;35.60;;;;;;;1.79;63.68;100496.00;1784939;80;21174;-76
2022/12/07 20:49:37;;;;;;;36.83;20.23;;;;;;;2.30;61.87;100500.56;1786447;80;21518;-76
2022/12/07 20:52:43;;;;;;;54.93;26.85;;;;;;;2.56;60.72;100511.20;1778052;80;21252;-76
2022/12/07 20:55:50;;;;;;;38.53;21.10;;;;;;;3.08;58.61;100509.75;1755100;82;21196;-76
2022/12/07 20:58:57;;;;;;;45.48;26.40;;;;;;;3.91;56.79;100504.31;1755131;82;21180;-76
2022/12/07 21:02:03;;;;;;;47.15;26.45;;;;;;;3.39;56.84;100503.19;1755175;81;21204;-76
2022/12/07 21:05:09;;;;;;;44.63;22.65;;;;;;;2.96;57.81;100494.02;1755077;82;21232;-77
2022/12/07 21:08:15;;;;;;;48.80;26.15;;;;;;;3.12;58.20;100490.96;1754370;81;21279;-76
2022/12/07 21:11:22;;;;;;;52.95;33.63;;;;;;;3.02;58.52;100482.73;1755220;82;21181;-76
2022/12/07 21:14:28;;;;;;;47.27;26.95;;;;;;;3.61;57.08;100482.87;1755161;82;21180;-75
2022/12/07 21:17:34;;;;;;;35.70;20.62;;;;;;;4.03;55.83;100492.44;1755543;82;21165;-76
2022/12/07 21:20:46;;;;;;;38.02;22.70;;;;;;;3.41;57.13;100500.75;1755388;82;21240;-76
2022/12/07 21:23:58;;;;;;;44.30;23.05;;;;;;;3.81;56.59;100501.48;1753711;80;21778;-76
2022/12/07 21:27:03;;;;;;;36.13;20.68;;;;;;;4.09;55.35;100503.62;1755237;82;21193;-76
2022/12/07 21:30:10;;;;;;;30.23;18.48;;;;;;;4.30;54.84;100509.04;1755261;82;21240;-77
2022/12/07 21:33:16;;;;;;;35.30;17.60;;;;;;;4.21;54.62;100515.23;1754500;82;21172;-77
2022/12/07 21:36:26;;;;;;;40.85;21.80;;;;;;;3.81;56.12;100518.61;1755111;81;21244;-77
2022/12/07 21:39:31;;;;;;;35.83;21.57;;;;;;;4.13;55.50;100515.02;1754936;80;21212;-76
2022/12/07 21:42:37;;;;;;;33.23;20.50;;;;;;;4.73;54.20;100516.66;1753741;82;21334;-76
2022/12/07 21:45:43;;;;;;;42.13;20.35;;;;;;;4.54;53.87;100510.12;1755136;82;21712;-76
2022/12/07 21:48:49;;;;;;;54.60;29.37;;;;;;;4.52;54.04;100507.20;1755369;81;21172;-76
2022/12/07 21:51:55;;;;;;;47.95;28.12;;;;;;;4.26;54.55;100496.75;1755299;81;21354;-76
2022/12/07 21:55:01;;;;;;;46.45;27.00;;;;;;;4.50;54.35;100494.27;1755466;80;21275;-76
2022/12/07 21:58:07;;;;;;;36.65;20.62;;;;;;;4.69;53.95;100487.61;1755011;82;21208;-76
2022/12/07 22:01:13;;;;;;;40.23;24.50;;;;;;;4.26;54.83;100491.33;1754987;82;21192;-76
2022/12/07 22:04:23;;;;;;;41.53;24.87;;;;;;;4.23;55.10;100491.58;1753824;82;21229;-76
2022/12/07 22:07:28;;;;;;;49.15;30.65;;;;;;;4.13;55.40;100496.07;1744080;82;21228;-78
2022/12/07 22:10:34;;;;;;;58.65;40.48;;;;;;;4.15;55.83;100490.55;1754995;82;21201;-76
2022/12/07 22:17:04;;;;;;;40.00;22.50;;;;;;;4.27;55.97;100498.45;1753554;82;21200;-78
2022/12/07 22:20:09;;;;;;;40.50;23.73;;;;;;;4.24;56.00;100485.20;1755039;82;21209;-78
2022/12/07 22:23:16;;;;;;;42.10;25.82;;;;;;;4.33;55.68;100488.97;1754488;81;21240;-78
2022/12/07 22:26:21;;;;;;;41.83;22.35;;;;;;;4.57;55.44;100476.51;1755139;82;21236;-78
2022/12/07 22:29:27;;;;;;;65.57;44.95;;;;;;;4.35;55.77;100470.73;1755223;82;21193;-78
2022/12/07 22:32:32;;;;;;;47.67;34.53;;;;;;;4.01;56.94;100476.33;1755152;82;21228;-78
2022/12/07 22:35:39;;;;;;;46.20;24.82;;;;;;;3.76;58.18;100470.75;1755031;82;21205;-76
2022/12/07 22:38:45;;;;;;;43.68;25.37;;;;;;;3.76;58.54;100473.46;1755228;80;21204;-78
2022/12/07 22:41:51;;;;;;;46.28;30.90;;;;;;;4.32;57.57;100476.40;1753773;82;21213;-75
2022/12/07 22:44:57;;;;;;;51.83;31.33;;;;;;;4.66;56.49;100482.48;1753941;82;21268;-76
2022/12/07 22:48:03;;;;;;;60.88;42.95;;;;;;;4.56;56.64;100481.07;1755060;82;21201;-77
2022/12/07 22:51:09;;;;;;;46.45;24.52;;;;;;;4.50;56.11;100477.52;1754906;82;21197;-76
2022/12/07 22:54:18;;;;;;;34.35;22.37;;;;;;;4.47;56.77;100475.56;1754676;80;21225;-76
2022/12/07 22:57:24;;;;;;;40.92;23.25;;;;;;;4.48;56.80;100484.08;1753595;82;21232;-76
2022/12/07 23:00:30;;;;;;;50.15;33.95;;;;;;;4.91;55.87;100484.37;1753439;82;21256;-75
2022/12/07 23:03:36;;;;;;;45.25;25.80;;;;;;;5.12;55.40;100487.87;1753412;82;21225;-75
2022/12/07 23:06:42;;;;;;;41.23;21.57;;;;;;;4.73;56.07;100485.50;1753489;82;21197;-78
2022/12/07 23:09:48;;;;;;;34.10;19.15;;;;;;;4.68;56.56;100492.67;1752916;82;21264;-77
2022/12/07 23:16:19;;;;;;;40.85;22.73;;;;;;;4.57;56.67;100496.83;1753510;82;21719;-77
2022/12/07 23:19:26;;;;;;;43.10;21.48;;;;;;;4.55;57.13;100501.00;1753507;82;21244;-76
2022/12/07 23:22:32;;;;;;;37.08;18.80;;;;;;;4.58;57.10;100502.60;1753390;82;21240;-77
2022/12/07 23:25:38;;;;;;;27.30;15.32;;;;;;;4.30;57.66;100502.77;1752211;82;21276;-77
2022/12/07 23:28:45;;;;;;;34.73;19.90;;;;;;;4.87;56.45;100495.48;1734434;82;21220;-77
2022/12/07 23:31:53;;;;;;;30.00;15.95;;;;;;;4.74;56.42;100502.97;1753449;82;21200;-78
2022/12/07 23:35:00;;;;;;;31.17;19.45;;;;;;;3.69;59.19;100504.73;1752710;82;21201;-77
2022/12/07 23:38:05;;;;;;;41.33;23.90;;;;;;;3.93;59.38;100499.61;1753332;82;21248;-76
2022/12/07 23:41:18;;;;;;;27.50;17.70;;;;;;;5.00;57.06;100493.91;1752254;82;21271;-77
2022/12/07 23:44:23;;;;;;;32.67;17.90;;;;;;;4.54;57.18;100495.73;1752274;82;22609;-76
2022/12/07 23:47:29;;;;;;;32.90;19.07;;;;;;;4.67;57.32;100503.66;1753624;82;21196;-76
2022/12/07 23:50:35;;;;;;;26.33;15.63;;;;;;;4.75;56.75;100506.06;1753523;82;21731;-77
2022/12/07 23:53:43;;;;;;;25.08;14.68;;;;;;;4.54;57.64;100510.12;1753494;82;21243;-76
2022/12/07 23:56:48;;;;;;;29.48;15.90;;;;;;;4.68;57.36;100511.64;1771913;80;21269;-76
2022/12/07 23:59:48;;;;;;;26.23;16.30;;;;;;;4.38;58.27;100508.89;1784504;80;21196;-77
